Information Last Ob Photographs Meteogram Network Table Neighbors Monthly Summaries Observation History Wind Roses Custom Wind Roses Data Calendar Download

24 June 2018 Observation History, [DSM] DES MOINES, timezone: America/Chicago

Select Date:
Show MetarsPrevious Day
Time Wind
(mph)
Vis.
(mi.)
Sky Cond.
(100s ft)
Present Wx Temperature (ºF) Relative
Humidity
Pressure Precipitation (in.)
Air Dwpt Feels Like 6 hour altimeter
(in.)
sea level
(mb)
1 hr 3 hr 6 hr
Max.Min.
8:54 AMSSE 910 FEW060
SCT090
BKN250
756676 74% 29.870
KDSM 241354Z 15008KT 10SM FEW060TCU SCT090 BKN250 24/19 A2987 RMK AO2 SLP109 CB DSNT N AND SW MOV E TCU N AND DSNT E AND W T02390189
8:50 AMSE 1210 FEW060
SCT090
% 29.87
KDSM 241350Z AUTO 14010G00KT 10SM FEW060 SCT090 24/19 A2987 RMK T02400190 CB DSNT N MOV E TCU N AND DSNT E AND W MADISHF
8:45 AMSE 1310 FEW070
% 29.87
KDSM 241345Z AUTO 14011G00KT 10SM FEW070 23/18 A2987 RMK T02300180 MADISHF
8:40 AMSE 1310 FEW070
% 29.87
KDSM 241340Z AUTO 14011G00KT 10SM FEW070 23/18 A2987 RMK T02300180 MADISHF
8:35 AMSE 1210 FEW070
% 29.87
KDSM 241335Z AUTO 14010G00KT 10SM FEW070 23/18 A2987 RMK T02300180 MADISHF
8:30 AMSE 1310 FEW070
% 29.87
KDSM 241330Z AUTO 14011G00KT 10SM FEW070 23/18 A2987 RMK T02300180 LTG DSNT N! MADISHF
8:25 AMSE 1010 FEW070
% 29.87
KDSM 241325Z AUTO 14009G00KT 10SM FEW070 23/18 A2987 RMK T02300180 LTG DSNT N! MADISHF
8:20 AMSE 810 FEW070
% 29.87
KDSM 241320Z AUTO 14007G00KT 10SM FEW070 23/18 A2987 RMK T02300180 LTG DSNT N! MADISHF
8:15 AMSE 910 FEW060
% 29.87
KDSM 241315Z AUTO 13008G00KT 10SM FEW060 23/18 A2987 RMK T02300180 MADISHF
8:10 AMSE 810 FEW060
% 29.87
KDSM 241310Z AUTO 13007G00KT 10SM FEW060 22/18 A2987 RMK T02200180 MADISHF
8:05 AMSE 910 FEW060
% 29.87
KDSM 241305Z AUTO 13008G00KT 10SM FEW060 22/18 A2987 RMK T02200180 MADISHF
8:00 AMSE 910 FEW060
FEW090
% 29.87
KDSM 241300Z AUTO 13008G00KT 10SM FEW060 FEW090 22/18 A2987 RMK T02200180 MADISHF
7:54 AMSE 1010 FEW060
SCT090
SCT110
BKN250
716472 78% 29.870
KDSM 241254Z 14009KT 10SM FEW060TCU SCT090 SCT110 BKN250 22/18 A2987 RMK AO2 SLP107 CB DSNT N MOV E TCU N AND DSNT W T02170178
7:50 AMSE 1010 FEW060
SCT090
% 29.87
KDSM 241250Z AUTO 14009G00KT 10SM FEW060 SCT090 22/18 A2987 RMK T02200180 MADISHF
7:45 AMSE 1010 FEW065
SCT090
% 29.87
KDSM 241245Z AUTO 14009G00KT 10SM FEW065 SCT090 22/18 A2987 RMK T02200180 MADISHF
7:40 AMSE 910 FEW060
SCT090
% 29.87
KDSM 241240Z AUTO 14008G00KT 10SM FEW060 SCT090 22/18 A2987 RMK T02200180 MADISHF
7:35 AMSE 910 FEW060
% 29.87
KDSM 241235Z AUTO 14008G00KT 10SM FEW060 21/18 A2987 RMK T02100180 MADISHF
7:30 AMSE 910 CLR
% 29.86
KDSM 241230Z AUTO 13008G00KT 10SM CLR 21/17 A2986 RMK T02100170 MADISHF
7:25 AMSE 810 FEW065
% 29.86
KDSM 241225Z AUTO 13007G00KT 10SM FEW065 21/17 A2986 RMK T02100170 MADISHF
7:20 AMSE 510 FEW065
% 29.86
KDSM 241220Z AUTO 13004G00KT 10SM FEW065 21/17 A2986 RMK T02100170 MADISHF
7:15 AMESE 610 CLR
% 29.86
KDSM 241215Z AUTO 12005G00KT 10SM CLR 21/17 A2986 RMK T02100170 MADISHF
7:10 AMSE 710 CLR
% 29.86
KDSM 241210Z AUTO 13006G00KT 10SM CLR 21/17 A2986 RMK T02100170 MADISHF
7:05 AMSE 810 CLR
% 29.86
KDSM 241205Z AUTO 14007G00KT 10SM CLR 21/17 A2986 RMK T02100170 MADISHF
7:00 AMSE 610 CLR
% 29.86
KDSM 241200Z AUTO 13005G00KT 10SM CLR 20/17 A2986 RMK T02000170 MADISHF
6:55 AMSE 710 CLR
% 29.86
KDSM 241155Z AUTO 13006G00KT 10SM CLR 20/17 A2986 RMK T02000170 MADISHF
6:54 AMSE 810 FEW065
FEW085
SCT250
686369 69 66 84% 29.850
KDSM 241154Z 13007KT 10SM FEW065TCU FEW085 SCT250 20/17 A2985 RMK AO2 SLP103 TCU VC NW T02000172 10206 20189 53011
6:50 AMSE 810 CLR
% 29.85
KDSM 241150Z AUTO 14007G00KT 10SM CLR 20/17 A2985 RMK T02000170 MADISHF
6:45 AMSE 810 FEW079
% 29.85
KDSM 241145Z AUTO 13007G00KT 10SM FEW079 20/17 A2985 RMK T02000170 MADISHF
6:40 AMSE 910 FEW065
SCT085
% 29.85
KDSM 241140Z AUTO 13008G00KT 10SM FEW065 SCT085 19/17 A2985 RMK T01900170 MADISHF
6:35 AMESE 710 FEW065
SCT085
% 29.85
KDSM 241135Z AUTO 12006G00KT 10SM FEW065 SCT085 19/17 A2985 RMK T01900170 MADISHF
6:30 AMESE 610 SCT070
BKN085
% 29.85
KDSM 241130Z AUTO 12005G00KT 10SM SCT070 BKN085 19/17 A2985 RMK T01900170 MADISHF
6:25 AMSE 710 BKN065
BKN085
% 29.85
KDSM 241125Z AUTO 14006G00KT 10SM BKN065 BKN085 19/17 A2985 RMK T01900170 MADISHF
6:20 AMSE 610 BKN065
OVC085
% 29.85
KDSM 241120Z AUTO 13005G00KT 10SM BKN065 OVC085 19/17 A2985 RMK T01900170 MADISHF
6:15 AMSE 710 BKN065
OVC085
% 29.84
KDSM 241115Z AUTO 13006G00KT 10SM BKN065 OVC085 19/17 A2984 RMK T01900170 MADISHF
6:10 AMSE 710 BKN065
OVC079
% 29.84
KDSM 241110Z AUTO 13006G00KT 10SM BKN065 OVC079 19/17 A2984 RMK T01900170 MADISHF
6:05 AMSE 710 BKN065
% 29.84
KDSM 241105Z AUTO 14006G00KT 10SM BKN065 19/17 A2984 RMK T01900170 MADISHF
6:00 AMSSE 710 BKN060
% 29.84
KDSM 241100Z AUTO 15006G00KT 10SM BKN060 19/17 A2984 RMK T01900170 MADISHF
5:55 AMSE 710 BKN060
% 29.83
KDSM 241055Z AUTO 14006G00KT 10SM BKN060 19/17 A2983 RMK T01900170 MADISHF
5:54 AMSE 710 BKN060
BKN250
666267 87% 29.830
KDSM 241054Z 14006KT 10SM BKN060 BKN250 19/17 A2983 RMK AO2 SLP096 TCU DSNT W-NW T01890167
5:50 AMSE 710 SCT060
% 29.84
KDSM 241050Z AUTO 14006G00KT 10SM SCT060 19/17 A2984 RMK T01900170 MADISHF
5:45 AMSSE 810 FEW060
% 29.84
KDSM 241045Z AUTO 15007G00KT 10SM FEW060 19/17 A2984 RMK T01900170 MADISHF
5:40 AMSE 810 CLR
% 29.83
KDSM 241040Z AUTO 14007G00KT 10SM CLR 19/17 A2983 RMK T01900170 MADISHF
5:35 AMSE 810 FEW060
% 29.82
KDSM 241035Z AUTO 13007G00KT 10SM FEW060 19/17 A2982 RMK T01900170 MADISHF
5:30 AMSE 710 FEW060
% 29.82
KDSM 241030Z AUTO 14006G00KT 10SM FEW060 19/17 A2982 RMK T01900170 MADISHF
5:25 AMSE 710 CLR
% 29.82
KDSM 241025Z AUTO 13006G00KT 10SM CLR 19/17 A2982 RMK T01900170 MADISHF
5:20 AMSE 910 CLR
% 29.82
KDSM 241020Z AUTO 13008G00KT 10SM CLR 19/17 A2982 RMK T01900170 MADISHF
5:15 AMSE 810 CLR
% 29.81
KDSM 241015Z AUTO 13007G00KT 10SM CLR 19/17 A2981 RMK T01900170 MADISHF
5:10 AMSE 810 CLR
% 29.81
KDSM 241010Z AUTO 13007G00KT 10SM CLR 19/17 A2981 RMK T01900170 MADISHF
5:05 AMSE 710 CLR
% 29.81
KDSM 241005Z AUTO 13006G00KT 10SM CLR 19/17 A2981 RMK T01900170 MADISHF
5:00 AMSE 810 CLR
% 29.81
KDSM 241000Z AUTO 13007G00KT 10SM CLR 19/17 A2981 RMK T01900170 MADISHF
4:55 AMESE 710 CLR
% 29.81
KDSM 240955Z AUTO 12006G00KT 10SM CLR 19/17 A2981 RMK T01900170 MADISHF
4:54 AMESE 710 FEW050
FEW250
676268 85% 29.810
KDSM 240954Z 12006KT 10SM FEW050 FEW250 19/17 A2981 RMK AO2 SLP087 T01940167
4:50 AMESE 710 CLR
% 29.81
KDSM 240950Z AUTO 12006G00KT 10SM CLR 19/17 A2981 RMK T01900170 MADISHF
4:45 AMESE 710 CLR
% 29.8
KDSM 240945Z AUTO 11006G00KT 10SM CLR 19/17 A2980 RMK T01900170 MADISHF
4:40 AMESE 710 CLR
% 29.8
KDSM 240940Z AUTO 11006G00KT 10SM CLR 19/17 A2980 RMK T01900170 MADISHF
4:35 AMESE 810 CLR
% 29.8
KDSM 240935Z AUTO 11007G00KT 10SM CLR 19/17 A2980 RMK T01900170 MADISHF
4:30 AMESE 810 CLR
% 29.8
KDSM 240930Z AUTO 11007G00KT 10SM CLR 19/17 A2980 RMK T01900170 MADISHF
4:25 AMESE 710 CLR
% 29.8
KDSM 240925Z AUTO 11006G00KT 10SM CLR 19/17 A2980 RMK T01900170 MADISHF
4:20 AMESE 710 CLR
% 29.8
KDSM 240920Z AUTO 11006G00KT 10SM CLR 19/17 A2980 RMK T01900170 MADISHF
4:15 AMESE 610 CLR
% 29.8
KDSM 240915Z AUTO 12005G00KT 10SM CLR 19/17 A2980 RMK T01900170 MADISHF
4:10 AMESE 710 CLR
% 29.81
KDSM 240910Z AUTO 12006G00KT 10SM CLR 19/17 A2981 RMK T01900170 MADISHF
4:05 AMESE 610 CLR
% 29.81
KDSM 240905Z AUTO 12005G00KT 10SM CLR 19/17 A2981 RMK T01900170 MADISHF
4:00 AMSE 610 CLR
% 29.82
KDSM 240900Z AUTO 13005G00KT 10SM CLR 19/17 A2982 RMK T01900170 MADISHF
3:55 AMSE 610 CLR
% 29.82
KDSM 240855Z AUTO 13005G00KT 10SM CLR 20/17 A2982 RMK T02000170 MADISHF
3:54 AMSE 610 FEW050
FEW080
686369 84% 29.820
KDSM 240854Z 13005KT 10SM FEW050 FEW080 20/17 A2982 RMK AO2 SLP091 OCNL LTGIC DSNT W AND NW CB DSNT W AND NW MOV E T02000172 51005
3:50 AMESE 610 CLR
% 29.82
KDSM 240850Z AUTO 12005G00KT 10SM CLR 20/17 A2982 RMK T02000170 MADISHF
3:45 AMESE 610 CLR
% 29.82
KDSM 240845Z AUTO 12005G00KT 10SM CLR 20/17 A2982 RMK T02000170 MADISHF
3:40 AMESE 610 CLR
% 29.82
KDSM 240840Z AUTO 12005G00KT 10SM CLR 20/17 A2982 RMK T02000170 MADISHF
3:35 AMSE 610 CLR
% 29.83
KDSM 240835Z AUTO 13005G00KT 10SM CLR 20/17 A2983 RMK T02000170 MADISHF
3:30 AMSE 610 CLR
% 29.83
KDSM 240830Z AUTO 13005G00KT 10SM CLR 20/17 A2983 RMK T02000170 MADISHF
3:25 AMESE 610 CLR
% 29.83
KDSM 240825Z AUTO 12005G00KT 10SM CLR 20/17 A2983 RMK T02000170 MADISHF
3:20 AMSE 610 CLR
% 29.83
KDSM 240820Z AUTO 13005G00KT 10SM CLR 20/17 A2983 RMK T02000170 MADISHF
3:15 AMESE 510 CLR
% 29.83
KDSM 240815Z AUTO 12004G00KT 10SM CLR 20/17 A2983 RMK T02000170 MADISHF
3:10 AMSE 510 CLR
% 29.83
KDSM 240810Z AUTO 13004G00KT 10SM CLR 20/17 A2983 RMK T02000170 MADISHF
3:05 AMESE 610 FEW050
% 29.82
KDSM 240805Z AUTO 12005G00KT 10SM FEW050 20/17 A2982 RMK T02000170 MADISHF
3:00 AMESE 510 FEW046
FEW055
% 29.82
KDSM 240800Z AUTO 11004G00KT 10SM FEW046 FEW055 20/17 A2982 RMK T02000170 MADISHF
2:55 AMESE 510 SCT046
SCT055
% 29.82
KDSM 240755Z AUTO 11004G00KT 10SM SCT046 SCT055 20/17 A2982 RMK T02000170 MADISHF
2:54 AMESE 510 FEW046
FEW055
SCT160
696370 81% 29.820
KDSM 240754Z 11004KT 10SM FEW046 FEW055 SCT160 21/17 A2982 RMK AO2 SLP090 T02060172
2:50 AMESE 610 SCT046
BKN055
% 29.82
KDSM 240750Z AUTO 12005G00KT 10SM SCT046 BKN055 21/17 A2982 RMK T02100170 MADISHF
2:45 AMSE 710 BKN046
BKN055
% 29.82
KDSM 240745Z AUTO 13006G00KT 10SM BKN046 BKN055 20/17 A2982 RMK T02000170 MADISHF
2:40 AMSE 710 BKN046
BKN055
% 29.82
KDSM 240740Z AUTO 14006G00KT 10SM BKN046 BKN055 20/17 A2982 RMK T02000170 MADISHF
2:35 AMSE 710 OVC044
% 29.82
KDSM 240735Z AUTO 14006G00KT 10SM OVC044 20/17 A2982 RMK T02000170 MADISHF
2:30 AMSE 710 BKN039
OVC048
% 29.82
KDSM 240730Z AUTO 14006G00KT 10SM BKN039 OVC048 20/17 A2982 RMK T02000170 MADISHF
2:25 AMSE 610 BKN039
OVC048
% 29.82
KDSM 240725Z AUTO 14005G00KT 10SM BKN039 OVC048 20/17 A2982 RMK T02000170 MADISHF
2:20 AMSSE 610 OVC039
% 29.82
KDSM 240720Z AUTO 15005G00KT 10SM OVC039 20/17 A2982 RMK T02000170 MADISHF
2:15 AMSE 610 OVC039
% 29.82
KDSM 240715Z AUTO 14005G00KT 10SM OVC039 21/17 A2982 RMK T02100170 MADISHF
2:10 AMSE 610 BKN039
OVC047
% 29.82
KDSM 240710Z AUTO 14005G00KT 10SM BKN039 OVC047 21/17 A2982 RMK T02100170 MADISHF
2:05 AMSE 610 BKN039
BKN049
% 29.82
KDSM 240705Z AUTO 14005G00KT 10SM BKN039 BKN049 21/17 A2982 RMK T02100170 MADISHF
2:00 AMSE 510 BKN039
BKN049
% 29.82
KDSM 240700Z AUTO 14004G00KT 10SM BKN039 BKN049 21/17 A2982 RMK T02100170 MADISHF
1:55 AMSE 510 BKN039
BKN049
% 29.81
KDSM 240655Z AUTO 13004G00KT 10SM BKN039 BKN049 20/17 A2981 RMK T02000170 MADISHF
1:54 AMSE 510 BKN042
BKN160
686369 84% 29.810
KDSM 240654Z 13004KT 10SM BKN042 BKN160 20/17 A2981 RMK AO2 SLP089 T02000172
1:50 AMSE 510 SCT045
% 29.82
KDSM 240650Z AUTO 14004G00KT 10SM SCT045 20/17 A2982 RMK T02000170 MADISHF
1:45 AMSE 510 FEW050
% 29.82
KDSM 240645Z AUTO 14004G00KT 10SM FEW050 19/17 A2982 RMK T01900170 MADISHF
1:40 AMSSE 510 FEW050
% 29.82
KDSM 240640Z AUTO 15004G00KT 10SM FEW050 19/17 A2982 RMK T01900170 MADISHF
1:35 AMSSE 610 CLR
% 29.82
KDSM 240635Z AUTO 15005G00KT 10SM CLR 19/17 A2982 RMK T01900170 MADISHF
1:30 AMSSE 610 CLR
% 29.82
KDSM 240630Z AUTO 15005G00KT 10SM CLR 19/17 A2982 RMK T01900170 MADISHF
1:25 AMSSE 610 CLR
% 29.82
KDSM 240625Z AUTO 15005G00KT 10SM CLR 19/17 A2982 RMK T01900170 MADISHF
1:20 AMSSE 610 CLR
% 29.82
KDSM 240620Z AUTO 15005G00KT 10SM CLR 19/17 A2982 RMK T01900170 MADISHF
1:15 AMSSE 610 CLR
% 29.82
KDSM 240615Z AUTO 15005G00KT 10SM CLR 20/17 A2982 RMK T02000170 MADISHF
1:10 AMSSE 610 CLR
% 29.81
KDSM 240610Z AUTO 15005G00KT 10SM CLR 20/17 A2981 RMK T02000170 MADISHF
1:05 AMSSE 610 CLR
% 29.81
KDSM 240605Z AUTO 15005G00KT 10SM CLR 19/17 A2981 RMK T01900170 MADISHF
1:00 AMSSE 610 CLR
% 29.81
KDSM 240600Z AUTO 16005G00KT 10SM CLR 20/17 A2981 RMK T02000170 MADISHF
12:55 AMSE 710 CLR
% 29.81
KDSM 240555Z AUTO 14006G00KT 10SM CLR 21/17 A2981 RMK T02100170 MADISHF
12:54 AMSE 710 FEW160
FEW250
696370 77 68 81% 29.810
KDSM 240554Z 14006KT 10SM FEW160 FEW250 21/17 A2981 RMK AO2 SLP087 T02060172 10250 20200 402670172 50000
12:50 AMSE 610 CLR
% 29.81
KDSM 240550Z AUTO 14005G00KT 10SM CLR 20/17 A2981 RMK T02000170 MADISHF
12:45 AMSSE 710 CLR
% 29.81
KDSM 240545Z AUTO 15006G00KT 10SM CLR 20/17 A2981 RMK T02000170 MADISHF
12:40 AMSSE 710 CLR
% 29.81
KDSM 240540Z AUTO 16006G00KT 10SM CLR 20/17 A2981 RMK T02000170 MADISHF
12:35 AMSSE 610 CLR
% 29.82
KDSM 240535Z AUTO 15005G00KT 10SM CLR 20/17 A2982 RMK T02000170 MADISHF
12:30 AMSSE 610 CLR
% 29.82
KDSM 240530Z AUTO 15005G00KT 10SM CLR 20/17 A2982 RMK T02000170 MADISHF
12:25 AMSSE 610 CLR
% 29.82
KDSM 240525Z AUTO 15005G00KT 10SM CLR 20/17 A2982 RMK T02000170 MADISHF
12:20 AMSSE 610 CLR
% 29.82
KDSM 240520Z AUTO 15005G00KT 10SM CLR 21/17 A2982 RMK T02100170 MADISHF
12:15 AMSE 610 CLR
% 29.82
KDSM 240515Z AUTO 14005G00KT 10SM CLR 21/17 A2982 RMK T02100170 MADISHF
12:10 AMSSE 610 CLR
% 29.82
KDSM 240510Z AUTO 15005G00KT 10SM CLR 21/17 A2982 RMK T02100170 MADISHF
12:05 AMSSE 510 CLR
% 29.82
KDSM 240505Z AUTO 15004G00KT 10SM CLR 21/17 A2982 RMK T02100170 MADISHF
12:00 AMSSE 610 CLR
% 29.82
KDSM 240500Z AUTO 15005G00KT 10SM CLR 22/17 A2982 RMK T02200170 MADISHF

Data Notes